Time;durP1;ratioP1;P1;durP2;ratioP2;P2;SDS_P1;SDS_P2;PMS_P1;PMS_P2;Temp;Humidity;BMP_temperature;BMP_pressure;BME280_temperature;BME280_humidity;BME280_pressure;Samples;Min_cycle;Max_cycle;Signal;HPM_P1;HPM_P2
2023/01/29 00:00:09;;;;;;;2.30;1.77;;;20.30;62.70;;;;;;4993886;28;20258;-82
2023/01/29 00:02:36;;;;;;;2.22;2.03;;;20.30;62.70;;;;;;4993806;28;20654;-81
2023/01/29 00:05:04;;;;;;;2.45;2.20;;;20.30;62.70;;;;;;4991211;28;20640;-82
2023/01/29 00:07:31;;;;;;;2.08;1.88;;;20.30;62.70;;;;;;4992546;28;20276;-83
2023/01/29 00:10:02;;;;;;;1.80;1.70;;;20.30;62.70;;;;;;4992493;28;20266;-80
2023/01/29 00:12:29;;;;;;;2.00;1.90;;;20.30;62.80;;;;;;4993501;28;20230;-83
2023/01/29 00:14:56;;;;;;;1.77;1.58;;;20.30;62.80;;;;;;4990336;28;20205;-81
2023/01/29 00:17:23;;;;;;;2.45;2.20;;;20.30;62.70;;;;;;4991084;28;20218;-82
2023/01/29 00:19:50;;;;;;;3.33;2.35;;;20.30;62.70;;;;;;4991149;28;20230;-80
2023/01/29 00:22:17;;;;;;;2.10;1.98;;;20.30;62.70;;;;;;4993240;28;20198;-81
2023/01/29 00:24:44;;;;;;;1.95;1.75;;;20.20;62.60;;;;;;4986962;28;20724;-82
2023/01/29 00:27:12;;;;;;;2.17;1.98;;;20.30;62.70;;;;;;4988833;28;20627;-81
2023/01/29 00:29:39;;;;;;;2.08;1.83;;;20.30;62.60;;;;;;4986282;28;20217;-79
2023/01/29 00:32:05;;;;;;;2.40;2.20;;;20.30;62.60;;;;;;4991680;28;20216;-81
2023/01/29 00:34:32;;;;;;;3.40;2.45;;;20.30;62.60;;;;;;4990598;28;20199;-82
2023/01/29 00:37:03;;;;;;;2.30;2.10;;;20.40;62.80;;;;;;4992644;28;20201;-82
2023/01/29 00:39:37;;;;;;;2.40;2.20;;;20.30;62.60;;;;;;4991698;28;20349;-81
2023/01/29 00:44:58;;;;;;;2.30;2.10;;;20.30;62.60;;;;;;4994606;28;20209;-81
2023/01/29 00:47:32;;;;;;;2.85;2.45;;;20.30;62.60;;;;;;4993620;28;20205;-82
2023/01/29 00:49:59;;;;;;;2.33;2.13;;;20.30;62.60;;;;;;4995024;28;20247;-80
2023/01/29 00:52:26;;;;;;;2.28;2.08;;;20.30;62.60;;;;;;4994534;28;20236;-80
2023/01/29 00:54:53;;;;;;;3.17;2.60;;;20.30;62.60;;;;;;4994652;28;20199;-81
2023/01/29 00:57:21;;;;;;;2.50;1.90;;;20.30;62.60;;;;;;4994042;28;20217;-81
2023/01/29 00:59:47;;;;;;;2.17;1.98;;;20.30;62.60;;;;;;4992003;28;20698;-81
2023/01/29 01:05:01;;;;;;;2.35;2.15;;;20.20;62.40;;;;;;4990042;28;20623;-81
2023/01/29 01:07:28;;;;;;;1.80;1.70;;;20.20;62.50;;;;;;4990048;28;20197;-81
2023/01/29 01:12:40;;;;;;;1.98;1.80;;;20.20;62.40;;;;;;4994322;28;20205;-81
2023/01/29 01:15:07;;;;;;;2.50;2.30;;;20.20;62.50;;;;;;4992663;28;20210;-80
2023/01/29 01:17:35;;;;;;;2.25;2.05;;;20.20;62.40;;;;;;4988548;28;20597;-81
2023/01/29 01:20:02;;;;;;;2.70;2.22;;;20.20;62.50;;;;;;4993198;28;20704;-81
2023/01/29 01:22:30;;;;;;;2.50;1.90;;;20.20;62.40;;;;;;4992462;28;20204;-80
2023/01/29 01:24:56;;;;;;;2.42;2.22;;;20.20;62.40;;;;;;4991567;28;20661;-81
2023/01/29 01:27:24;;;;;;;1.55;1.45;;;20.20;62.40;;;;;;4992960;28;20673;-82
2023/01/29 01:29:51;;;;;;;2.25;1.95;;;20.20;62.40;;;;;;4993575;28;20217;-82
2023/01/29 01:32:18;;;;;;;2.55;2.35;;;20.20;62.40;;;;;;4990837;28;20583;-81
2023/01/29 01:34:46;;;;;;;2.28;2.08;;;20.20;62.40;;;;;;4992936;28;20574;-78
2023/01/29 01:37:12;;;;;;;3.72;2.47;;;20.20;62.40;;;;;;4990707;28;20203;-81
2023/01/29 01:39:39;;;;;;;2.33;2.08;;;20.20;62.40;;;;;;4992320;28;20594;-80
2023/01/29 01:42:11;;;;;;;2.63;2.42;;;20.20;62.40;;;;;;4991675;28;20206;-79
2023/01/29 01:44:57;;;;;;;2.13;1.95;;;20.20;62.40;;;;;;4993466;28;20741;-81
2023/01/29 01:47:30;;;;;;;2.38;2.17;;;20.20;62.40;;;;;;4988556;28;20256;-81
2023/01/29 01:50:02;;;;;;;2.20;2.03;;;20.20;62.40;;;;;;4993250;28;20604;-80
2023/01/29 01:52:31;;;;;;;2.40;2.20;;;20.20;62.40;;;;;;4989178;28;20218;-81
2023/01/29 01:54:58;;;;;;;4.72;2.25;;;20.20;62.40;;;;;;4988801;28;20220;-81
2023/01/29 01:57:27;;;;;;;2.28;2.05;;;20.20;62.50;;;;;;4990378;28;20206;-81
2023/01/29 01:59:59;;;;;;;1.98;1.83;;;20.20;62.40;;;;;;4992925;28;20269;-81
2023/01/29 02:10:45;;;;;;;2.22;2.03;;;20.20;62.40;;;;;;4991642;28;20240;-80
2023/01/29 02:13:15;;;;;;;2.40;2.20;;;20.20;62.40;;;;;;4991828;28;20221;-81
2023/01/29 02:15:45;;;;;;;2.90;2.60;;;20.20;62.40;;;;;;4992396;28;20225;-81
2023/01/29 02:18:13;;;;;;;2.22;2.13;;;20.20;62.40;;;;;;4991895;28;20586;-82
2023/01/29 02:20:43;;;;;;;2.13;1.92;;;20.20;62.40;;;;;;4992999;28;20228;-81
2023/01/29 02:23:40;;;;;;;2.00;1.80;;;20.20;62.40;;;;;;4992795;28;20214;-81
2023/01/29 02:26:29;;;;;;;2.30;2.10;;;20.20;62.40;;;;;;4996873;28;20584;-82
2023/01/29 02:29:21;;;;;;;2.13;1.98;;;20.20;62.40;;;;;;4994670;28;20206;-82
2023/01/29 02:31:56;;;;;;;2.33;2.13;;;20.20;62.40;;;;;;4996198;28;20235;-82
2023/01/29 02:37:14;;;;;;;2.67;2.47;;;20.20;62.50;;;;;;4975257;28;20204;-81
2023/01/29 02:39:49;;;;;;;2.80;2.20;;;20.20;62.40;;;;;;4991662;28;20284;-81
2023/01/29 02:42:26;;;;;;;2.22;2.00;;;20.20;62.40;;;;;;4998428;28;20194;-82
2023/01/29 02:44:58;;;;;;;2.25;2.05;;;20.20;62.40;;;;;;4995128;28;20203;-82
2023/01/29 02:47:33;;;;;;;2.20;2.00;;;20.20;62.40;;;;;;4995943;28;20658;-81
2023/01/29 02:50:06;;;;;;;2.38;2.17;;;20.20;62.40;;;;;;4996267;28;20207;-82
2023/01/29 02:52:38;;;;;;;2.35;2.15;;;20.20;62.40;;;;;;4993721;28;20221;-81
2023/01/29 02:55:11;;;;;;;2.75;2.00;;;20.20;62.40;;;;;;4993745;28;20916;-81
2023/01/29 02:57:41;;;;;;;2.50;2.30;;;20.20;62.40;;;;;;4997271;28;20214;-81
2023/01/29 03:00:14;;;;;;;2.10;1.90;;;20.20;62.40;;;;;;4994063;28;20206;-82
2023/01/29 03:02:46;;;;;;;2.40;2.20;;;20.20;62.40;;;;;;4992187;28;20203;-82
2023/01/29 03:05:17;;;;;;;2.10;1.90;;;20.20;62.40;;;;;;4992893;28;20213;-83
2023/01/29 03:07:52;;;;;;;2.53;2.33;;;20.20;62.40;;;;;;4993339;28;20202;-82
2023/01/29 03:10:23;;;;;;;2.50;2.30;;;20.20;62.40;;;;;;4996775;28;20202;-82
2023/01/29 03:12:55;;;;;;;1.95;1.85;;;20.20;62.40;;;;;;4990880;28;20293;-81
2023/01/29 03:15:27;;;;;;;2.95;2.65;;;20.20;62.40;;;;;;4994453;28;20206;-82
2023/01/29 03:17:58;;;;;;;2.33;2.13;;;20.20;62.40;;;;;;4993635;28;20231;-82
2023/01/29 03:20:31;;;;;;;2.40;2.20;;;20.20;62.30;;;;;;4996351;28;20314;-82
2023/01/29 03:23:01;;;;;;;2.45;2.25;;;20.20;62.30;;;;;;4993011;28;20936;-82
2023/01/29 03:33:53;;;;;;;2.50;2.30;;;20.10;62.20;;;;;;4990582;28;20251;-81
2023/01/29 03:36:37;;;;;;;2.03;1.83;;;20.10;62.20;;;;;;4993894;28;20206;-82
2023/01/29 03:39:04;;;;;;;2.15;2.05;;;20.10;62.20;;;;;;4991407;28;20202;-81
2023/01/29 03:41:35;;;;;;;2.20;2.00;;;20.10;62.20;;;;;;4995590;28;20206;-81
2023/01/29 03:44:12;;;;;;;2.50;2.30;;;20.20;62.30;;;;;;4995074;28;20206;-81
2023/01/29 03:46:49;;;;;;;2.28;2.08;;;20.10;62.20;;;;;;4992378;28;20651;-81
2023/01/29 03:49:21;;;;;;;2.50;2.30;;;20.10;62.20;;;;;;4994044;28;20202;-81
2023/01/29 03:51:55;;;;;;;2.53;2.20;;;20.10;62.20;;;;;;4995322;28;20230;-81
2023/01/29 03:54:28;;;;;;;2.10;1.95;;;20.10;62.20;;;;;;4994562;28;20221;-82
2023/01/29 03:57:00;;;;;;;1.70;1.60;;;20.20;62.30;;;;;;4994869;28;20198;-81
2023/01/29 03:59:39;;;;;;;2.65;1.92;;;20.10;62.20;;;;;;4994669;28;20613;-81
2023/01/29 04:02:11;;;;;;;2.50;2.30;;;20.20;62.30;;;;;;4992081;28;20602;-81
2023/01/29 04:04:41;;;;;;;2.38;2.17;;;20.10;62.10;;;;;;4993505;28;20214;-80
2023/01/29 04:07:12;;;;;;;2.00;1.90;;;20.10;62.20;;;;;;4992204;28;20208;-79
2023/01/29 04:09:46;;;;;;;2.35;2.08;;;20.20;62.30;;;;;;4993110;28;20199;-79
2023/01/29 04:12:18;;;;;;;2.78;2.58;;;20.20;62.30;;;;;;4992199;28;20195;-80
2023/01/29 04:14:46;;;;;;;2.20;2.00;;;20.10;62.20;;;;;;4994488;28;20206;-79
2023/01/29 04:17:17;;;;;;;2.47;2.28;;;20.10;62.20;;;;;;4992069;28;20207;-80
2023/01/29 04:19:44;;;;;;;2.80;2.60;;;20.10;62.10;;;;;;4992080;28;20223;-79
2023/01/29 04:22:17;;;;;;;2.42;2.22;;;20.10;62.20;;;;;;4992203;28;20203;-79
2023/01/29 04:24:44;;;;;;;2.58;2.38;;;20.10;62.20;;;;;;4991770;28;20585;-79
2023/01/29 04:27:25;;;;;;;2.38;2.17;;;20.10;62.20;;;;;;4991124;28;20199;-80
2023/01/29 04:30:04;;;;;;;2.03;1.92;;;20.10;62.20;;;;;;4990714;28;20209;-79
2023/01/29 04:32:49;;;;;;;2.50;2.30;;;20.10;62.20;;;;;;4989650;28;20204;-82
2023/01/29 04:35:29;;;;;;;2.10;1.90;;;20.20;62.30;;;;;;4991740;28;20531;-81
2023/01/29 04:38:06;;;;;;;2.03;1.92;;;20.10;62.10;;;;;;4991329;28;20418;-80
2023/01/29 04:40:42;;;;;;;2.30;2.10;;;20.20;62.30;;;;;;4990163;28;20738;-81
2023/01/29 04:43:15;;;;;;;2.08;1.98;;;20.10;62.10;;;;;;4993219;28;20341;-79
2023/01/29 04:45:51;;;;;;;2.20;2.00;;;20.10;62.10;;;;;;4993289;28;20686;-80
2023/01/29 04:48:24;;;;;;;2.80;2.38;;;20.10;62.10;;;;;;4992264;28;20222;-80
2023/01/29 04:51:01;;;;;;;2.47;2.38;;;20.10;62.10;;;;;;4991797;28;20207;-81
2023/01/29 04:53:37;;;;;;;2.70;2.50;;;20.10;62.10;;;;;;4991595;28;20670;-81
2023/01/29 04:56:10;;;;;;;2.60;2.40;;;20.10;62.10;;;;;;4990664;28;22287;-81
2023/01/29 04:58:42;;;;;;;2.13;1.92;;;20.10;62.00;;;;;;4992224;28;20208;-81
2023/01/29 05:01:13;;;;;;;2.13;2.03;;;20.10;62.10;;;;;;4990535;28;20233;-81
2023/01/29 05:03:45;;;;;;;2.42;2.22;;;20.10;62.10;;;;;;4991644;28;20199;-80
2023/01/29 05:06:13;;;;;;;2.20;2.00;;;20.10;62.00;;;;;;4992588;28;20198;-80
2023/01/29 05:08:41;;;;;;;1.95;1.85;;;20.10;62.00;;;;;;4991630;28;20199;-81
2023/01/29 05:11:08;;;;;;;2.05;1.95;;;20.10;62.00;;;;;;4990296;28;20214;-81
2023/01/29 05:13:39;;;;;;;2.55;2.35;;;20.10;62.00;;;;;;4993021;28;20663;-80
2023/01/29 05:16:12;;;;;;;3.28;2.88;;;20.10;62.80;;;;;;4991806;28;20203;-80
2023/01/29 05:18:39;;;;;;;3.00;2.40;;;20.10;62.00;;;;;;4992205;28;20233;-81
2023/01/29 05:21:09;;;;;;;2.42;2.20;;;20.10;62.00;;;;;;4992815;28;20229;-83
2023/01/29 05:23:37;;;;;;;2.10;1.90;;;20.10;62.00;;;;;;4991004;28;20215;-82
2023/01/29 05:26:05;;;;;;;2.47;2.28;;;20.10;62.00;;;;;;4989603;28;20211;-82
2023/01/29 05:28:32;;;;;;;2.72;2.53;;;20.10;62.00;;;;;;4995581;28;20725;-81
2023/01/29 05:30:59;;;;;;;2.60;2.40;;;20.10;62.00;;;;;;4988842;28;20542;-81
2023/01/29 05:33:28;;;;;;;2.88;2.67;;;20.10;61.90;;;;;;4990900;28;20651;-81
2023/01/29 05:35:55;;;;;;;2.28;2.13;;;20.10;62.00;;;;;;4987898;28;20234;-80
2023/01/29 05:38:24;;;;;;;2.70;2.50;;;20.10;61.90;;;;;;4992277;28;20216;-82
2023/01/29 05:40:51;;;;;;;2.38;2.22;;;20.10;61.90;;;;;;4989872;28;20214;-80
2023/01/29 05:43:20;;;;;;;2.22;2.10;;;20.10;61.90;;;;;;4992474;28;20820;-80
2023/01/29 05:45:53;;;;;;;2.65;2.00;;;20.10;61.90;;;;;;4990986;28;20543;-80
2023/01/29 05:48:20;;;;;;;2.40;2.20;;;20.10;61.90;;;;;;4991006;28;20200;-80
2023/01/29 05:50:47;;;;;;;2.63;2.42;;;20.10;61.90;;;;;;4989722;28;20210;-80
2023/01/29 05:53:14;;;;;;;2.65;2.45;;;20.10;61.80;;;;;;4990495;28;20233;-81
2023/01/29 05:55:44;;;;;;;2.15;1.98;;;20.10;61.80;;;;;;4992376;28;20211;-80
2023/01/29 05:58:11;;;;;;;1.80;1.70;;;20.10;61.80;;;;;;4993030;28;20211;-78
2023/01/29 06:00:38;;;;;;;2.10;1.90;;;20.10;61.80;;;;;;4984708;28;20223;-79
2023/01/29 06:03:05;;;;;;;2.80;2.60;;;20.10;61.80;;;;;;4990699;28;20203;-79
2023/01/29 06:05:32;;;;;;;2.40;2.30;;;20.10;61.80;;;;;;4989954;28;20210;-80
2023/01/29 06:07:58;;;;;;;3.00;2.80;;;20.10;61.80;;;;;;4990670;28;20729;-78
2023/01/29 06:10:25;;;;;;;2.10;1.90;;;20.10;61.80;;;;;;4989707;28;20682;-79
2023/01/29 06:12:53;;;;;;;2.17;2.08;;;20.10;61.80;;;;;;4990807;28;20662;-79
2023/01/29 06:15:20;;;;;;;2.28;2.08;;;20.10;61.80;;;;;;4989365;28;20210;-79
2023/01/29 06:17:47;;;;;;;2.30;2.10;;;20.10;61.80;;;;;;4990525;28;20729;-80
2023/01/29 06:20:14;;;;;;;2.45;2.15;;;20.00;61.70;;;;;;4989176;28;20403;-80
2023/01/29 06:22:40;;;;;;;2.65;2.45;;;20.00;61.70;;;;;;4986804;28;20199;-79
2023/01/29 06:25:08;;;;;;;2.35;2.15;;;20.00;61.70;;;;;;4989923;28;20565;-81
2023/01/29 06:27:35;;;;;;;2.70;2.50;;;20.00;61.70;;;;;;4989136;28;20202;-83
2023/01/29 06:30:03;;;;;;;2.05;1.85;;;20.00;61.70;;;;;;4990250;28;20230;-81
2023/01/29 06:32:30;;;;;;;1.77;1.67;;;19.90;61.60;;;;;;4992329;28;20282;-81
2023/01/29 06:34:57;;;;;;;2.08;1.88;;;20.00;61.70;;;;;;4992862;28;20208;-82
2023/01/29 06:37:24;;;;;;;2.08;1.95;;;20.00;62.50;;;;;;4989244;28;20217;-81
2023/01/29 06:39:51;;;;;;;1.92;1.83;;;20.00;61.60;;;;;;4991096;28;20844;-79
2023/01/29 06:42:19;;;;;;;1.98;1.85;;;20.00;61.60;;;;;;4988491;28;20234;-80
2023/01/29 06:44:46;;;;;;;2.30;2.10;;;20.00;61.60;;;;;;4989581;28;20247;-81
2023/01/29 06:47:14;;;;;;;2.90;2.70;;;20.00;61.60;;;;;;4989467;28;20206;-79
2023/01/29 06:49:40;;;;;;;2.50;2.30;;;20.00;61.60;;;;;;4990018;28;20204;-79
2023/01/29 06:52:07;;;;;;;2.08;1.98;;;20.00;61.60;;;;;;4988953;28;20887;-79
2023/01/29 06:54:34;;;;;;;2.63;2.42;;;20.10;61.60;;;;;;4991472;28;20218;-81
2023/01/29 06:57:01;;;;;;;2.63;2.42;;;20.10;61.70;;;;;;4990267;28;20201;-80
2023/01/29 06:59:27;;;;;;;2.75;2.55;;;20.10;61.60;;;;;;4988230;28;20203;-79
2023/01/29 07:01:54;;;;;;;2.50;2.30;;;20.10;61.60;;;;;;4989899;28;20227;-82
2023/01/29 07:04:22;;;;;;;4.70;2.20;;;20.10;61.60;;;;;;4991359;28;20207;-79
2023/01/29 07:06:49;;;;;;;2.17;1.98;;;20.10;61.60;;;;;;4987037;28;20508;-79
2023/01/29 07:09:16;;;;;;;2.60;2.40;;;20.10;61.60;;;;;;4994848;28;20291;-79
2023/01/29 07:11:43;;;;;;;2.17;2.00;;;20.10;61.60;;;;;;4992988;28;20204;-80
2023/01/29 07:14:10;;;;;;;2.50;2.30;;;20.10;61.60;;;;;;4994536;28;20238;-79
2023/01/29 07:16:37;;;;;;;2.28;2.17;;;20.10;61.60;;;;;;4992876;28;20206;-81
2023/01/29 07:19:05;;;;;;;2.90;2.42;;;20.10;61.60;;;;;;4994030;28;20227;-79
2023/01/29 07:21:33;;;;;;;2.30;2.10;;;20.10;61.60;;;;;;4992396;28;20224;-79
2023/01/29 07:24:00;;;;;;;2.30;2.10;;;20.10;61.50;;;;;;4996500;28;20208;-80
2023/01/29 07:26:27;;;;;;;2.47;2.28;;;20.10;61.50;;;;;;4990825;28;20210;-78
2023/01/29 07:28:54;;;;;;;2.83;2.63;;;20.10;61.50;;;;;;4990977;28;20204;-80
2023/01/29 07:31:21;;;;;;;2.70;2.50;;;20.10;61.50;;;;;;4991854;28;20213;-80
2023/01/29 07:33:48;;;;;;;2.53;2.33;;;20.10;61.50;;;;;;4994794;28;20527;-81
2023/01/29 07:36:15;;;;;;;2.20;2.00;;;20.10;61.60;;;;;;4993570;28;20207;-80
2023/01/29 07:38:43;;;;;;;2.63;2.42;;;20.10;61.50;;;;;;4990217;28;20680;-78
2023/01/29 07:41:11;;;;;;;2.57;2.37;;;20.10;61.50;;;;;;4991969;28;20223;-79
2023/01/29 07:43:38;;;;;;;2.17;1.98;;;20.10;61.50;;;;;;4992590;28;20447;-80
2023/01/29 07:46:05;;;;;;;2.35;2.15;;;20.10;61.50;;;;;;4990131;28;20206;-79
2023/01/29 07:48:32;;;;;;;2.33;2.22;;;20.10;61.50;;;;;;4993353;28;20206;-79
2023/01/29 07:50:59;;;;;;;2.20;2.00;;;20.10;61.50;;;;;;4992728;28;20216;-80
2023/01/29 07:53:27;;;;;;;2.83;2.63;;;20.10;61.50;;;;;;4991622;28;20203;-79
2023/01/29 07:55:55;;;;;;;2.40;2.20;;;20.10;61.50;;;;;;4993293;28;20216;-79
2023/01/29 07:58:22;;;;;;;2.30;2.10;;;20.10;61.50;;;;;;4993537;28;20208;-79
2023/01/29 08:00:49;;;;;;;2.20;2.00;;;20.10;61.50;;;;;;4990103;28;20231;-79
2023/01/29 08:03:18;;;;;;;2.50;2.30;;;20.10;61.50;;;;;;4993391;28;20204;-80
2023/01/29 08:05:46;;;;;;;2.17;2.03;;;20.10;61.50;;;;;;4993494;28;20219;-79
2023/01/29 08:08:13;;;;;;;2.35;2.15;;;20.10;61.50;;;;;;4990549;28;20480;-83
2023/01/29 08:10:40;;;;;;;2.78;2.58;;;20.10;61.40;;;;;;4992224;28;20613;-82
2023/01/29 08:13:09;;;;;;;2.70;2.50;;;20.00;61.20;;;;;;4992602;28;20673;-82
2023/01/29 08:15:36;;;;;;;2.85;2.65;;;20.00;60.80;;;;;;4992971;28;20210;-82
2023/01/29 08:18:03;;;;;;;2.75;2.55;;;20.00;60.70;;;;;;4992829;28;20207;-82
2023/01/29 08:20:29;;;;;;;2.80;2.60;;;20.00;60.70;;;;;;4994240;28;20230;-82
2023/01/29 08:23:00;;;;;;;2.65;2.45;;;19.90;60.80;;;;;;4992573;28;20206;-81
2023/01/29 08:25:27;;;;;;;2.67;2.30;;;19.90;60.80;;;;;;4991812;28;20203;-78
2023/01/29 08:27:58;;;;;;;3.05;2.35;;;19.90;60.90;;;;;;4994896;28;20581;-81
2023/01/29 08:30:26;;;;;;;3.30;2.20;;;20.00;60.90;;;;;;4988342;28;20231;-82
2023/01/29 08:32:54;;;;;;;2.90;2.70;;;20.10;61.10;;;;;;4996485;28;20585;-81
2023/01/29 08:35:21;;;;;;;8.25;2.70;;;20.10;61.00;;;;;;4993490;28;20306;-81
2023/01/29 08:37:55;;;;;;;3.55;2.10;;;20.10;61.10;;;;;;4999426;28;20266;-82
2023/01/29 08:40:22;;;;;;;2.78;2.20;;;20.10;61.20;;;;;;4993336;28;20287;-82
2023/01/29 08:42:53;;;;;;;4.32;2.08;;;20.10;61.50;;;;;;4998243;28;20257;-81
2023/01/29 08:45:20;;;;;;;17.13;2.17;;;20.10;61.60;;;;;;4994727;28;20208;-82
2023/01/29 08:47:49;;;;;;;3.60;2.38;;;20.10;61.70;;;;;;4995473;28;20272;-81
2023/01/29 08:50:17;;;;;;;2.42;2.25;;;20.10;61.70;;;;;;4998005;28;20651;-81
2023/01/29 08:52:44;;;;;;;2.63;2.30;;;20.10;61.90;;;;;;4997945;28;20228;-82
2023/01/29 08:55:11;;;;;;;2.38;2.20;;;20.10;62.80;;;;;;4995000;28;20678;-82
2023/01/29 08:57:38;;;;;;;3.90;3.60;;;20.10;62.10;;;;;;4992965;28;20198;-79
2023/01/29 09:00:08;;;;;;;4.35;3.95;;;20.10;62.00;;;;;;4994379;28;20204;-80
2023/01/29 09:02:34;;;;;;;4.30;3.90;;;20.10;61.50;;;;;;4993970;28;20659;-80
2023/01/29 09:05:10;;;;;;;10.63;3.50;;;20.00;61.20;;;;;;4994691;28;20219;-83
2023/01/29 09:07:37;;;;;;;5.35;3.08;;;20.00;61.40;;;;;;4992825;28;20199;-78
2023/01/29 09:10:04;;;;;;;4.45;3.10;;;20.00;61.50;;;;;;4992793;28;20209;-80
2023/01/29 09:12:31;;;;;;;3.08;2.78;;;20.00;61.40;;;;;;4992030;28;20210;-78
2023/01/29 09:14:58;;;;;;;5.18;3.50;;;20.00;61.40;;;;;;4995511;28;20202;-79
2023/01/29 09:17:24;;;;;;;4.88;2.60;;;20.00;61.50;;;;;;4990502;28;20206;-79
2023/01/29 09:19:52;;;;;;;4.20;2.92;;;20.00;61.50;;;;;;4994893;28;20200;-78
2023/01/29 09:22:20;;;;;;;4.97;2.20;;;20.00;61.50;;;;;;4991849;28;20661;-78
2023/01/29 09:24:47;;;;;;;4.47;2.35;;;20.00;61.50;;;;;;4990899;28;20200;-78
2023/01/29 09:27:13;;;;;;;5.88;2.00;;;20.00;61.50;;;;;;4987811;28;20218;-78
2023/01/29 09:29:40;;;;;;;2.65;2.45;;;20.00;61.50;;;;;;4987916;28;20198;-79
2023/01/29 09:32:07;;;;;;;2.88;2.67;;;20.00;61.50;;;;;;4989512;28;20201;-78
2023/01/29 09:34:34;;;;;;;2.55;2.35;;;20.00;61.50;;;;;;4992620;28;20662;-79
2023/01/29 09:37:01;;;;;;;2.97;2.67;;;20.00;61.60;;;;;;4990670;28;20202;-76
2023/01/29 09:39:29;;;;;;;2.30;2.10;;;20.00;61.50;;;;;;4994213;28;20665;-78
2023/01/29 09:42:03;;;;;;;2.80;2.35;;;20.00;61.50;;;;;;4990425;28;20574;-80
2023/01/29 09:44:49;;;;;;;2.30;2.10;;;20.00;61.50;;;;;;4990978;28;20236;-79
2023/01/29 09:47:17;;;;;;;3.45;2.42;;;20.00;61.60;;;;;;4986461;28;20213;-79
2023/01/29 09:49:48;;;;;;;3.28;2.42;;;20.00;61.60;;;;;;4984894;28;20209;-78
2023/01/29 09:52:22;;;;;;;6.68;2.65;;;20.00;61.60;;;;;;4986617;28;20229;-78
2023/01/29 09:54:58;;;;;;;2.60;2.40;;;19.90;61.60;;;;;;4985675;28;20218;-78
2023/01/29 09:57:32;;;;;;;2.72;2.22;;;19.90;61.60;;;;;;4986395;28;20757;-80
2023/01/29 09:59:59;;;;;;;2.25;2.05;;;19.90;61.60;;;;;;4986566;28;20215;-78
2023/01/29 10:02:55;;;;;;;2.38;2.17;;;19.90;61.60;;;;;;4986185;28;20232;-78
2023/01/29 10:05:35;;;;;;;2.40;2.20;;;19.90;61.60;;;;;;4984356;28;20200;-80
2023/01/29 10:08:34;;;;;;;2.33;2.08;;;19.90;61.70;;;;;;4987223;28;20197;-79
2023/01/29 10:11:09;;;;;;;2.42;2.22;;;19.90;61.70;;;;;;4988933;28;20233;-79
2023/01/29 10:13:44;;;;;;;2.10;2.00;;;19.90;61.60;;;;;;4985022;28;21508;-78
2023/01/29 10:16:23;;;;;;;2.30;2.10;;;19.90;61.60;;;;;;4985563;28;20581;-79
2023/01/29 10:19:15;;;;;;;2.08;1.88;;;19.90;61.60;;;;;;4985971;28;20206;-79
2023/01/29 10:22:05;;;;;;;1.92;1.80;;;20.00;61.70;;;;;;4985141;28;20232;-77
2023/01/29 10:24:37;;;;;;;1.95;1.85;;;20.00;61.70;;;;;;4986016;28;20209;-78
2023/01/29 10:27:13;;;;;;;2.58;2.38;;;20.00;61.70;;;;;;4988818;28;20210;-76
2023/01/29 10:29:44;;;;;;;3.45;2.38;;;20.00;61.80;;;;;;4987210;28;20209;-77
2023/01/29 10:32:16;;;;;;;2.30;2.10;;;19.90;61.70;;;;;;4986262;28;20194;-80
2023/01/29 10:34:47;;;;;;;4.18;2.47;;;20.00;61.80;;;;;;4983583;28;20202;-80
2023/01/29 10:37:18;;;;;;;3.30;2.00;;;20.00;61.80;;;;;;4989649;28;20209;-77
2023/01/29 10:39:45;;;;;;;2.47;2.28;;;20.00;61.80;;;;;;4986181;28;20337;-80
2023/01/29 10:42:26;;;;;;;5.53;2.38;;;20.00;61.80;;;;;;4986326;28;20214;-79
2023/01/29 10:45:09;;;;;;;2.00;1.90;;;20.00;61.80;;;;;;4989666;28;20216;-79
2023/01/29 10:47:58;;;;;;;2.10;1.90;;;20.00;61.90;;;;;;4989567;28;20210;-78
2023/01/29 10:50:42;;;;;;;1.85;1.70;;;20.00;61.90;;;;;;4990435;28;20198;-80
2023/01/29 10:53:24;;;;;;;7.45;2.25;;;20.00;61.90;;;;;;4992969;28;20218;-80
2023/01/29 10:55:58;;;;;;;7.35;2.55;;;19.90;61.90;;;;;;4996300;28;20218;-80
2023/01/29 10:58:33;;;;;;;2.40;2.20;;;19.90;62.10;;;;;;4996950;28;20204;-78
2023/01/29 11:01:03;;;;;;;16.40;14.70;;;19.80;62.30;;;;;;4995834;28;20202;-80
2023/01/29 11:03:32;;;;;;;24.60;22.02;;;19.10;55.40;;;;;;5002087;28;20222;-81
2023/01/29 11:06:12;;;;;;;26.02;23.30;;;18.00;51.60;;;;;;4997255;28;20230;-81
2023/01/29 11:08:46;;;;;;;29.85;26.80;;;17.40;49.90;;;;;;4998636;28;20295;-79
2023/01/29 11:11:16;;;;;;;24.60;22.17;;;16.90;48.60;;;;;;4994403;28;20702;-82
2023/01/29 11:14:05;;;;;;;20.40;18.40;;;17.00;50.20;;;;;;4996318;28;20197;-87
2023/01/29 11:16:44;;;;;;;15.90;14.50;;;17.70;52.70;;;;;;4998812;28;20260;-87
2023/01/29 11:19:12;;;;;;;13.43;12.20;;;18.30;53.90;;;;;;4997503;28;20671;-86
2023/01/29 11:21:55;;;;;;;11.27;10.27;;;18.70;54.90;;;;;;4996110;28;20669;-87
2023/01/29 11:24:22;;;;;;;9.73;8.82;;;19.00;55.70;;;;;;4995050;28;20201;-84
2023/01/29 11:26:51;;;;;;;9.63;7.25;;;19.20;56.30;;;;;;4992748;28;20657;-83
2023/01/29 11:29:33;;;;;;;8.85;6.95;;;19.30;56.70;;;;;;4994009;28;20205;-83
2023/01/29 11:32:03;;;;;;;6.50;5.97;;;19.40;56.90;;;;;;4993481;28;20661;-83
2023/01/29 11:34:30;;;;;;;5.53;5.05;;;19.50;57.20;;;;;;4995231;28;20206;-83
2023/01/29 11:36:59;;;;;;;6.00;5.13;;;19.50;57.50;;;;;;4994439;28;20210;-82
2023/01/29 11:39:27;;;;;;;5.10;4.65;;;19.60;57.70;;;;;;4995753;28;20206;-84
2023/01/29 11:41:57;;;;;;;7.85;5.05;;;19.60;58.00;;;;;;4993518;28;20775;-82
2023/01/29 11:44:30;;;;;;;4.40;4.00;;;19.70;58.10;;;;;;4996576;28;20201;-83
2023/01/29 11:46:59;;;;;;;4.45;4.05;;;19.70;58.40;;;;;;4993756;28;20665;-82
2023/01/29 11:49:33;;;;;;;5.07;4.18;;;19.70;58.50;;;;;;4994259;28;20210;-82
2023/01/29 11:52:02;;;;;;;3.92;3.45;;;19.80;58.80;;;;;;4992992;28;20221;-82
2023/01/29 11:54:34;;;;;;;2.95;2.75;;;19.80;58.90;;;;;;4994594;28;20219;-81
2023/01/29 11:57:02;;;;;;;4.32;3.85;;;19.80;59.20;;;;;;4993320;28;20673;-85
2023/01/29 11:59:43;;;;;;;3.70;3.40;;;19.80;59.30;;;;;;4996532;28;20204;-84
2023/01/29 12:02:25;;;;;;;4.13;2.78;;;19.90;59.50;;;;;;4993426;28;20311;-83
2023/01/29 12:04:54;;;;;;;4.13;2.45;;;19.90;59.70;;;;;;4994682;28;20208;-84
2023/01/29 12:07:21;;;;;;;5.18;3.40;;;19.90;60.70;;;;;;4995638;28;20207;-83
2023/01/29 12:09:54;;;;;;;3.47;2.80;;;19.90;60.10;;;;;;4993466;28;20211;-82
2023/01/29 12:12:33;;;;;;;3.15;2.75;;;19.90;60.30;;;;;;4995312;28;20234;-85
2023/01/29 12:15:14;;;;;;;2.75;2.55;;;19.90;60.50;;;;;;4993272;28;20677;-83
2023/01/29 12:17:46;;;;;;;3.15;2.40;;;19.90;60.70;;;;;;4996277;28;20217;-84
2023/01/29 12:20:17;;;;;;;2.90;2.60;;;19.90;60.90;;;;;;4995189;28;20219;-83
2023/01/29 12:22:50;;;;;;;3.30;2.70;;;19.90;61.10;;;;;;4995673;28;20588;-84
2023/01/29 12:25:22;;;;;;;2.30;2.10;;;19.90;61.20;;;;;;4999687;28;20214;-83
2023/01/29 12:27:55;;;;;;;2.53;2.33;;;20.00;61.40;;;;;;4991285;28;20201;-82
2023/01/29 12:30:29;;;;;;;2.85;2.65;;;20.00;61.60;;;;;;4993298;28;20208;-83
2023/01/29 12:33:03;;;;;;;2.80;2.35;;;20.00;61.70;;;;;;4991972;28;20194;-82
2023/01/29 12:35:32;;;;;;;3.13;2.90;;;20.00;61.80;;;;;;4995176;28;20568;-81
2023/01/29 12:38:05;;;;;;;4.47;2.30;;;20.00;62.00;;;;;;4992803;28;20212;-81
2023/01/29 12:40:37;;;;;;;2.50;2.30;;;20.00;62.10;;;;;;4994415;28;20708;-82
2023/01/29 12:43:12;;;;;;;3.20;2.30;;;20.00;62.10;;;;;;4992487;28;20222;-82
2023/01/29 12:45:42;;;;;;;2.35;2.15;;;20.00;62.20;;;;;;4994613;28;20562;-81
2023/01/29 12:48:13;;;;;;;2.22;2.03;;;20.00;62.20;;;;;;4993903;28;20199;-85
2023/01/29 12:50:41;;;;;;;3.05;2.63;;;20.00;62.40;;;;;;4993703;28;20206;-82
2023/01/29 12:53:28;;;;;;;2.88;1.80;;;20.00;62.50;;;;;;4993446;28;20622;-80
2023/01/29 12:56:03;;;;;;;4.13;1.95;;;20.00;62.60;;;;;;4996369;28;20214;-86
2023/01/29 12:58:35;;;;;;;2.75;2.50;;;20.00;62.60;;;;;;4999434;28;20199;-87
2023/01/29 13:01:12;;;;;;;2.90;2.60;;;20.10;62.70;;;;;;5005805;28;20207;-86
2023/01/29 13:03:48;;;;;;;2.67;2.20;;;20.10;62.80;;;;;;4998255;28;20211;-84
2023/01/29 13:06:19;;;;;;;4.40;2.30;;;20.10;62.90;;;;;;4993102;28;20211;-83
2023/01/29 13:08:50;;;;;;;2.50;2.13;;;20.10;62.80;;;;;;4991474;28;20794;-83
2023/01/29 13:11:24;;;;;;;7.97;2.63;;;20.10;62.90;;;;;;4992313;28;20199;-86
2023/01/29 13:13:55;;;;;;;3.50;2.40;;;20.10;62.80;;;;;;5000277;28;20640;-86
2023/01/29 13:16:27;;;;;;;2.15;1.95;;;20.20;62.80;;;;;;4997272;28;20209;-87
2023/01/29 13:18:57;;;;;;;3.70;1.90;;;20.20;62.80;;;;;;4993082;28;20210;-83
2023/01/29 13:21:30;;;;;;;3.00;2.20;;;20.20;62.80;;;;;;4996031;28;22563;-84
2023/01/29 13:24:03;;;;;;;2.00;1.90;;;20.20;62.90;;;;;;4994793;28;20226;-84
2023/01/29 13:26:30;;;;;;;3.67;2.10;;;20.20;62.90;;;;;;4992084;28;20208;-85
2023/01/29 13:28:58;;;;;;;2.47;2.20;;;20.20;63.00;;;;;;4994479;28;20290;-84
2023/01/29 13:31:30;;;;;;;3.90;2.05;;;20.20;63.00;;;;;;4993643;28;20469;-84